Portada
METAR-TAF:

METAR-TAF

Aeroports :

Visakhapatnam, Índia

latitud: 17-43-16N, longitud: 83-13-28E, altitud: 6 m

Observació

L'informe es va fer fa 1 hora i 3 minuts, a les 06:00 UTC
Vent 6 kt del Est
Temperatura 29°C
Humitat 52%
Pressió 1013 hPa
Visibilitat: 4500 m
calitja

METAR: VOVZ 110600Z 08006KT 4500 HZ NSC 29/18 Q1013 NOSIG

Hora: 12:33 (07:03 UTC)


TAF: manca

Observacions i pronòstics meteorològics de més de 4000 aeroports (METAR i TAF).

Les estacions disponibles són els punts grocs i vermells al mapa.

Posi el ratolí al punt desitjat per veure el nom de l'estació.

Feu clic per veure les observacions i els pronòstics meteorològics.

Per canviar el mapa: feu clic els botons verds amb una creu de color negre per apropar; al botó verd amb un guió per allunyar la imatge; o en les fletxes verdes per a mapes adjacents.


METAR-TAF: